• Join FlightAware (Why Join?)
  • Login
  • US Flag 
03:01AM EDT


 

Airport Tracker/Info


-or-


 

Live Flight TrackerFlight Track Log ✈ N762NC ✈ 11-Aug-2013 ✈ KATL - KSAV

Flight Track Log - Related Links

Times and Time Zones

All times are in EDT time to prevent confusion due to time zone crossing. See the N762NC flight status page for this flight to view local times or setup timezone preferences in your user account.

Time Position Orientation Groundspeed Altitude Reporting Facility
EDT Latitude Longitude Course Direction KTS MPH feet Rate Location/Type
04:56PM 33.6222 -84.4953 128° Southeast 411 473 2,500  Level Atlanta Center
04:57PM 33.5886 -84.5750 243° Southwest 326 375 5,000 2,400 Climbing Atlanta Center
04:58PM 33.5278 -84.5994 199° South 252 290 7,400 2,100 Climbing Atlanta Center
04:59PM 33.2355 -84.2614 163° South  Level FlightAware Approximate
04:59PM 33.4550 -84.5792 167° South 279 321 9,300  Level Atlanta Center
05:00PM 33.1352 -84.2249 163° South  Level FlightAware Approximate
05:00PM 33.3906 -84.5067 137° Southeast 299 344 10,800  Level Atlanta Center
05:01PM 33.0461 -84.1690 128° Southeast  Level FlightAware Approximate
05:01PM 33.3178 -84.4217 136° Southeast 340 391 12,300  Level Atlanta Center
05:02PM 33.2450 -84.3269 133° Southeast 368 423 14,300 1,860 Climbing Atlanta Center
05:03PM 33.1678 -84.2350 135° Southeast 388 447 16,100 1,800 Climbing Atlanta Center
05:04PM 33.1408 -84.1058 104° East 397 457 17,900 1,620 Climbing Atlanta Center
05:05PM 33.1264 -83.9719 97° East 397 457 19,400 1,500 Climbing Atlanta Center
05:06PM 33.1053 -83.8281 100° East 418 481 20,900 1,500 Climbing Atlanta Center
05:07PM 33.0653 -83.6769 107° East 423 487 22,400 1,020 Climbing Atlanta Center
05:08PM 33.0272 -83.5383 108° East 436 502 23,000 300 Climbing Atlanta Center
05:09PM 32.9869 -83.3925 108° East 451 519 23,000  Level Atlanta Center
05:10PM 32.9464 -83.2492 109° East 451 519 23,000  Level Atlanta Center
05:11PM 32.9078 -83.1158 109° East 462 532 23,000  Level Atlanta Center
05:12PM 32.8692 -82.9728 108° East 462 532 23,000  Level Atlanta Center
05:13PM 32.8197 -82.8303 112° Southeast 462 532 23,000  Level Atlanta Center
05:14PM 32.7661 -82.6875 114° Southeast 468 539 23,000  Level Atlanta Center
05:15PM 32.6892 -82.5333 121° Southeast 481 554 23,000 -720 Level Atlanta Center
05:17PM 32.5428 -82.2322 120° Southeast 482 555 20,700 -1,740 Descending Jacksonville Center
05:18PM 32.4836 -82.1044 119° Southeast 459 528 17,500 -3,360 Descending Jacksonville Center
05:19PM 32.4347 -81.9819 115° Southeast 419 482 14,000 -3,000 Descending Jacksonville Center
05:20PM 32.3961 -81.8542 110° East 406 467 11,500 -1,800 Descending Jacksonville Center
05:21PM 32.3681 -81.7439 107° East 397 457 10,500 -780 Descending Jacksonville Center
05:22PM 32.3272 -81.6217 112° Southeast 371 427 10,000 -360 Descending Jacksonville Center
05:23PM 32.2886 -81.5286 116° Southeast 351 404 9,800 -960 Descending Jacksonville Center
05:24PM 32.2561 -81.4283 111° Southeast 313 360 8,100 -1,620 Descending Jacksonville Center
05:25PM 32.2281 -81.3356 110° East 303 349 6,600 -1,500 Descending Jacksonville Center
05:26PM 32.2019 -81.2500 110° East 284 327 5,200 -1,500 Descending Jacksonville Center
05:27PM 32.1947 -81.1814 97° East 241 277 3,600 -1,680 Descending Jacksonville Center
05:28PM 32.1875 -81.1103 97° East 224 258 1,900 -1,080 Descending Jacksonville Center
05:29PM 32.1372 -81.1017 172° South 167 192 1,500 -420 Descending Jacksonville Center